sensor_id;sensor_type;location;lat;lon;timestamp;P1;durP1;ratioP1;P2;durP2;ratioP2
19016;SDS011;9641;51.494;6.670;2022-10-31T00:00:15;14.20;;;6.20;;
19016;SDS011;9641;51.494;6.670;2022-10-31T00:02:42;12.77;;;7.33;;
19016;SDS011;9641;51.494;6.670;2022-10-31T00:05:09;13.47;;;6.07;;
19016;SDS011;9641;51.494;6.670;2022-10-31T00:07:35;11.40;;;6.10;;
19016;SDS011;9641;51.494;6.670;2022-10-31T00:10:05;10.80;;;6.03;;
19016;SDS011;9641;51.494;6.670;2022-10-31T00:12:32;16.50;;;6.30;;
19016;SDS011;9641;51.494;6.670;2022-10-31T00:14:59;12.00;;;6.37;;
19016;SDS011;9641;51.494;6.670;2022-10-31T00:17:26;9.60;;;5.87;;
19016;SDS011;9641;51.494;6.670;2022-10-31T00:19:53;12.60;;;6.47;;
19016;SDS011;9641;51.494;6.670;2022-10-31T00:22:19;16.90;;;7.03;;
19016;SDS011;9641;51.494;6.670;2022-10-31T00:24:46;9.30;;;6.03;;
19016;SDS011;9641;51.494;6.670;2022-10-31T00:27:15;13.63;;;6.30;;
19016;SDS011;9641;51.494;6.670;2022-10-31T00:29:41;10.47;;;6.13;;
19016;SDS011;9641;51.494;6.670;2022-10-31T00:32:08;13.60;;;6.30;;
19016;SDS011;9641;51.494;6.670;2022-10-31T00:34:35;10.87;;;6.00;;
19016;SDS011;9641;51.494;6.670;2022-10-31T00:37:01;16.20;;;7.63;;
19016;SDS011;9641;51.494;6.670;2022-10-31T00:39:28;16.83;;;7.20;;
19016;SDS011;9641;51.494;6.670;2022-10-31T00:41:55;16.20;;;6.97;;
19016;SDS011;9641;51.494;6.670;2022-10-31T00:44:23;12.40;;;6.10;;
19016;SDS011;9641;51.494;6.670;2022-10-31T00:46:51;12.27;;;6.10;;
19016;SDS011;9641;51.494;6.670;2022-10-31T00:49:20;10.53;;;7.07;;
19016;SDS011;9641;51.494;6.670;2022-10-31T00:51:48;11.63;;;6.37;;
19016;SDS011;9641;51.494;6.670;2022-10-31T00:54:15;13.17;;;7.10;;
19016;SDS011;9641;51.494;6.670;2022-10-31T00:56:42;13.63;;;6.00;;
19016;SDS011;9641;51.494;6.670;2022-10-31T00:59:09;13.07;;;6.03;;
19016;SDS011;9641;51.494;6.670;2022-10-31T01:01:38;12.83;;;6.33;;
19016;SDS011;9641;51.494;6.670;2022-10-31T01:04:05;10.40;;;6.20;;
19016;SDS011;9641;51.494;6.670;2022-10-31T01:06:32;12.33;;;6.13;;
19016;SDS011;9641;51.494;6.670;2022-10-31T01:08:59;8.73;;;6.40;;
19016;SDS011;9641;51.494;6.670;2022-10-31T01:11:26;12.50;;;6.57;;
19016;SDS011;9641;51.494;6.670;2022-10-31T01:13:53;11.33;;;6.37;;
19016;SDS011;9641;51.494;6.670;2022-10-31T01:16:22;9.80;;;6.73;;
19016;SDS011;9641;51.494;6.670;2022-10-31T01:18:51;12.10;;;6.67;;
19016;SDS011;9641;51.494;6.670;2022-10-31T01:21:19;12.10;;;6.70;;
19016;SDS011;9641;51.494;6.670;2022-10-31T01:23:48;12.07;;;6.63;;
19016;SDS011;9641;51.494;6.670;2022-10-31T01:26:17;16.80;;;7.73;;
19016;SDS011;9641;51.494;6.670;2022-10-31T01:28:46;13.03;;;7.53;;
19016;SDS011;9641;51.494;6.670;2022-10-31T01:31:14;12.90;;;7.50;;
19016;SDS011;9641;51.494;6.670;2022-10-31T01:33:43;14.73;;;7.70;;
19016;SDS011;9641;51.494;6.670;2022-10-31T01:36:15;13.80;;;7.27;;
19016;SDS011;9641;51.494;6.670;2022-10-31T01:38:44;15.00;;;7.97;;
19016;SDS011;9641;51.494;6.670;2022-10-31T01:41:11;14.70;;;8.07;;
19016;SDS011;9641;51.494;6.670;2022-10-31T01:43:43;11.80;;;7.10;;
19016;SDS011;9641;51.494;6.670;2022-10-31T01:46:12;14.93;;;7.83;;
19016;SDS011;9641;51.494;6.670;2022-10-31T01:48:41;14.37;;;7.70;;
19016;SDS011;9641;51.494;6.670;2022-10-31T01:51:08;12.90;;;7.83;;
19016;SDS011;9641;51.494;6.670;2022-10-31T01:53:40;12.87;;;7.47;;
19016;SDS011;9641;51.494;6.670;2022-10-31T01:56:10;14.50;;;7.60;;
19016;SDS011;9641;51.494;6.670;2022-10-31T01:58:38;13.30;;;7.37;;
19016;SDS011;9641;51.494;6.670;2022-10-31T02:01:06;17.13;;;8.97;;
19016;SDS011;9641;51.494;6.670;2022-10-31T02:03:33;14.93;;;8.80;;
19016;SDS011;9641;51.494;6.670;2022-10-31T02:06:00;15.50;;;8.60;;
19016;SDS011;9641;51.494;6.670;2022-10-31T02:08:29;15.83;;;7.83;;
19016;SDS011;9641;51.494;6.670;2022-10-31T02:10:59;17.17;;;7.80;;
19016;SDS011;9641;51.494;6.670;2022-10-31T02:13:27;15.20;;;8.27;;
19016;SDS011;9641;51.494;6.670;2022-10-31T02:15:56;16.53;;;8.60;;
19016;SDS011;9641;51.494;6.670;2022-10-31T02:18:24;15.07;;;8.37;;
19016;SDS011;9641;51.494;6.670;2022-10-31T02:20:58;13.27;;;7.50;;
19016;SDS011;9641;51.494;6.670;2022-10-31T02:23:44;14.13;;;8.10;;
19016;SDS011;9641;51.494;6.670;2022-10-31T02:26:43;16.87;;;8.00;;
19016;SDS011;9641;51.494;6.670;2022-10-31T02:29:37;14.50;;;8.30;;
19016;SDS011;9641;51.494;6.670;2022-10-31T02:32:20;17.47;;;8.07;;
19016;SDS011;9641;51.494;6.670;2022-10-31T02:34:55;14.80;;;7.83;;
19016;SDS011;9641;51.494;6.670;2022-10-31T02:37:31;15.00;;;7.67;;
19016;SDS011;9641;51.494;6.670;2022-10-31T02:40:05;14.07;;;7.77;;
19016;SDS011;9641;51.494;6.670;2022-10-31T02:42:59;14.57;;;7.80;;
19016;SDS011;9641;51.494;6.670;2022-10-31T02:45:31;15.73;;;7.90;;
19016;SDS011;9641;51.494;6.670;2022-10-31T02:48:07;15.27;;;7.43;;
19016;SDS011;9641;51.494;6.670;2022-10-31T02:50:37;15.73;;;7.93;;
19016;SDS011;9641;51.494;6.670;2022-10-31T02:53:08;18.60;;;8.20;;
19016;SDS011;9641;51.494;6.670;2022-10-31T02:55:42;14.33;;;7.93;;
19016;SDS011;9641;51.494;6.670;2022-10-31T02:58:15;14.63;;;8.00;;
19016;SDS011;9641;51.494;6.670;2022-10-31T03:00:47;13.83;;;8.50;;
19016;SDS011;9641;51.494;6.670;2022-10-31T03:03:26;16.13;;;8.33;;
19016;SDS011;9641;51.494;6.670;2022-10-31T03:06:00;16.47;;;9.00;;
19016;SDS011;9641;51.494;6.670;2022-10-31T03:08:34;15.13;;;9.10;;
19016;SDS011;9641;51.494;6.670;2022-10-31T03:11:05;16.27;;;8.70;;
19016;SDS011;9641;51.494;6.670;2022-10-31T03:13:35;14.60;;;8.47;;
19016;SDS011;9641;51.494;6.670;2022-10-31T03:16:07;16.53;;;8.97;;
19016;SDS011;9641;51.494;6.670;2022-10-31T03:18:39;17.27;;;8.23;;
19016;SDS011;9641;51.494;6.670;2022-10-31T03:21:10;15.23;;;8.33;;
19016;SDS011;9641;51.494;6.670;2022-10-31T03:23:39;11.53;;;7.47;;
19016;SDS011;9641;51.494;6.670;2022-10-31T03:26:17;17.87;;;10.00;;
19016;SDS011;9641;51.494;6.670;2022-10-31T03:28:48;17.77;;;9.03;;
19016;SDS011;9641;51.494;6.670;2022-10-31T03:31:20;15.83;;;8.53;;
19016;SDS011;9641;51.494;6.670;2022-10-31T03:33:55;21.70;;;9.27;;
19016;SDS011;9641;51.494;6.670;2022-10-31T03:36:28;15.23;;;9.50;;
19016;SDS011;9641;51.494;6.670;2022-10-31T03:38:58;13.97;;;8.87;;
19016;SDS011;9641;51.494;6.670;2022-10-31T03:41:28;17.63;;;8.70;;
19016;SDS011;9641;51.494;6.670;2022-10-31T03:43:59;18.47;;;8.97;;
19016;SDS011;9641;51.494;6.670;2022-10-31T03:46:31;13.93;;;7.90;;
19016;SDS011;9641;51.494;6.670;2022-10-31T03:49:00;15.37;;;8.63;;
19016;SDS011;9641;51.494;6.670;2022-10-31T03:51:28;19.23;;;8.80;;
19016;SDS011;9641;51.494;6.670;2022-10-31T03:54:02;17.17;;;9.43;;
19016;SDS011;9641;51.494;6.670;2022-10-31T03:56:35;12.43;;;8.30;;
19016;SDS011;9641;51.494;6.670;2022-10-31T03:59:08;17.97;;;8.80;;
19016;SDS011;9641;51.494;6.670;2022-10-31T04:01:42;16.90;;;9.37;;
19016;SDS011;9641;51.494;6.670;2022-10-31T04:04:14;14.50;;;8.40;;
19016;SDS011;9641;51.494;6.670;2022-10-31T04:06:42;16.80;;;8.80;;
19016;SDS011;9641;51.494;6.670;2022-10-31T04:09:12;13.80;;;8.63;;
19016;SDS011;9641;51.494;6.670;2022-10-31T04:11:42;13.43;;;8.50;;
19016;SDS011;9641;51.494;6.670;2022-10-31T04:14:37;18.43;;;9.60;;
19016;SDS011;9641;51.494;6.670;2022-10-31T04:17:14;16.87;;;9.03;;
19016;SDS011;9641;51.494;6.670;2022-10-31T04:19:45;14.87;;;9.03;;
19016;SDS011;9641;51.494;6.670;2022-10-31T04:22:12;15.60;;;8.90;;
19016;SDS011;9641;51.494;6.670;2022-10-31T04:24:39;17.67;;;8.90;;
19016;SDS011;9641;51.494;6.670;2022-10-31T04:27:09;14.93;;;9.03;;
19016;SDS011;9641;51.494;6.670;2022-10-31T04:29:37;16.03;;;8.63;;
19016;SDS011;9641;51.494;6.670;2022-10-31T04:32:04;12.20;;;8.43;;
19016;SDS011;9641;51.494;6.670;2022-10-31T04:34:30;15.17;;;8.87;;
19016;SDS011;9641;51.494;6.670;2022-10-31T04:36:59;18.07;;;8.73;;
19016;SDS011;9641;51.494;6.670;2022-10-31T04:39:26;18.37;;;9.33;;
19016;SDS011;9641;51.494;6.670;2022-10-31T04:42:16;17.57;;;8.73;;
19016;SDS011;9641;51.494;6.670;2022-10-31T04:44:43;19.93;;;8.53;;
19016;SDS011;9641;51.494;6.670;2022-10-31T04:47:09;20.37;;;8.90;;
19016;SDS011;9641;51.494;6.670;2022-10-31T04:49:36;15.90;;;8.90;;
19016;SDS011;9641;51.494;6.670;2022-10-31T04:52:05;16.20;;;8.93;;
19016;SDS011;9641;51.494;6.670;2022-10-31T04:54:33;17.37;;;9.40;;
19016;SDS011;9641;51.494;6.670;2022-10-31T04:57:19;15.83;;;8.80;;
19016;SDS011;9641;51.494;6.670;2022-10-31T04:59:47;17.87;;;8.57;;
19016;SDS011;9641;51.494;6.670;2022-10-31T05:02:14;15.40;;;9.03;;
19016;SDS011;9641;51.494;6.670;2022-10-31T05:04:46;17.57;;;8.53;;
19016;SDS011;9641;51.494;6.670;2022-10-31T05:07:14;13.93;;;8.90;;
19016;SDS011;9641;51.494;6.670;2022-10-31T05:09:42;13.90;;;8.43;;
19016;SDS011;9641;51.494;6.670;2022-10-31T05:12:11;15.03;;;8.13;;
19016;SDS011;9641;51.494;6.670;2022-10-31T05:14:57;16.47;;;8.30;;
19016;SDS011;9641;51.494;6.670;2022-10-31T05:17:42;15.07;;;8.67;;
19016;SDS011;9641;51.494;6.670;2022-10-31T05:20:30;13.57;;;8.00;;
19016;SDS011;9641;51.494;6.670;2022-10-31T05:23:19;16.17;;;8.60;;
19016;SDS011;9641;51.494;6.670;2022-10-31T05:25:46;16.57;;;8.60;;
19016;SDS011;9641;51.494;6.670;2022-10-31T05:28:13;14.23;;;8.00;;
19016;SDS011;9641;51.494;6.670;2022-10-31T05:30:40;16.70;;;8.23;;
19016;SDS011;9641;51.494;6.670;2022-10-31T05:33:11;15.63;;;9.23;;
19016;SDS011;9641;51.494;6.670;2022-10-31T05:36:13;17.43;;;9.60;;
19016;SDS011;9641;51.494;6.670;2022-10-31T05:38:52;14.33;;;8.37;;
19016;SDS011;9641;51.494;6.670;2022-10-31T05:41:23;21.33;;;8.13;;
19016;SDS011;9641;51.494;6.670;2022-10-31T05:43:51;15.63;;;8.80;;
19016;SDS011;9641;51.494;6.670;2022-10-31T05:46:25;17.53;;;9.43;;
19016;SDS011;9641;51.494;6.670;2022-10-31T05:49:10;16.17;;;8.23;;
19016;SDS011;9641;51.494;6.670;2022-10-31T05:51:56;13.97;;;8.50;;
19016;SDS011;9641;51.494;6.670;2022-10-31T05:54:36;17.93;;;9.10;;
19016;SDS011;9641;51.494;6.670;2022-10-31T05:57:03;16.13;;;9.53;;
19016;SDS011;9641;51.494;6.670;2022-10-31T05:59:30;14.43;;;8.70;;
19016;SDS011;9641;51.494;6.670;2022-10-31T06:01:57;15.73;;;7.80;;
19016;SDS011;9641;51.494;6.670;2022-10-31T06:04:44;21.03;;;8.83;;
19016;SDS011;9641;51.494;6.670;2022-10-31T06:07:11;13.43;;;8.17;;
19016;SDS011;9641;51.494;6.670;2022-10-31T06:09:39;14.37;;;8.80;;
19016;SDS011;9641;51.494;6.670;2022-10-31T06:12:06;14.13;;;8.50;;
19016;SDS011;9641;51.494;6.670;2022-10-31T06:14:53;14.77;;;9.27;;
19016;SDS011;9641;51.494;6.670;2022-10-31T06:17:20;19.70;;;8.37;;
19016;SDS011;9641;51.494;6.670;2022-10-31T06:19:47;17.57;;;9.03;;
19016;SDS011;9641;51.494;6.670;2022-10-31T06:22:19;16.47;;;9.03;;
19016;SDS011;9641;51.494;6.670;2022-10-31T06:24:47;14.90;;;9.60;;
19016;SDS011;9641;51.494;6.670;2022-10-31T06:27:27;17.60;;;8.43;;
19016;SDS011;9641;51.494;6.670;2022-10-31T06:29:56;18.43;;;8.37;;
19016;SDS011;9641;51.494;6.670;2022-10-31T06:32:29;20.07;;;8.20;;
19016;SDS011;9641;51.494;6.670;2022-10-31T06:34:57;13.63;;;9.13;;
19016;SDS011;9641;51.494;6.670;2022-10-31T06:37:24;19.70;;;8.60;;
19016;SDS011;9641;51.494;6.670;2022-10-31T06:39:55;21.33;;;9.10;;
19016;SDS011;9641;51.494;6.670;2022-10-31T06:42:22;15.23;;;8.60;;
19016;SDS011;9641;51.494;6.670;2022-10-31T06:44:49;17.47;;;8.97;;
19016;SDS011;9641;51.494;6.670;2022-10-31T06:47:42;16.57;;;8.23;;
19016;SDS011;9641;51.494;6.670;2022-10-31T06:50:13;17.57;;;8.93;;
19016;SDS011;9641;51.494;6.670;2022-10-31T06:52:40;16.73;;;9.03;;
19016;SDS011;9641;51.494;6.670;2022-10-31T06:55:09;17.00;;;9.30;;
19016;SDS011;9641;51.494;6.670;2022-10-31T06:57:36;14.03;;;8.57;;
19016;SDS011;9641;51.494;6.670;2022-10-31T07:00:04;17.70;;;9.10;;
19016;SDS011;9641;51.494;6.670;2022-10-31T07:02:39;13.10;;;7.17;;
19016;SDS011;9641;51.494;6.670;2022-10-31T07:05:08;14.03;;;8.57;;
19016;SDS011;9641;51.494;6.670;2022-10-31T07:07:51;13.87;;;8.30;;
19016;SDS011;9641;51.494;6.670;2022-10-31T07:10:29;19.40;;;8.93;;
19016;SDS011;9641;51.494;6.670;2022-10-31T07:13:02;14.77;;;8.53;;
19016;SDS011;9641;51.494;6.670;2022-10-31T07:15:33;14.40;;;8.27;;
19016;SDS011;9641;51.494;6.670;2022-10-31T07:18:00;16.50;;;8.07;;
19016;SDS011;9641;51.494;6.670;2022-10-31T07:20:32;18.83;;;9.27;;
19016;SDS011;9641;51.494;6.670;2022-10-31T07:23:01;15.97;;;8.37;;
19016;SDS011;9641;51.494;6.670;2022-10-31T07:25:34;15.00;;;7.97;;
19016;SDS011;9641;51.494;6.670;2022-10-31T07:28:10;13.77;;;8.03;;
19016;SDS011;9641;51.494;6.670;2022-10-31T07:30:38;14.87;;;8.47;;
19016;SDS011;9641;51.494;6.670;2022-10-31T07:33:09;13.80;;;8.60;;
19016;SDS011;9641;51.494;6.670;2022-10-31T07:36:01;14.70;;;7.73;;
19016;SDS011;9641;51.494;6.670;2022-10-31T07:38:32;15.47;;;8.97;;
19016;SDS011;9641;51.494;6.670;2022-10-31T07:41:04;16.20;;;8.47;;
19016;SDS011;9641;51.494;6.670;2022-10-31T07:43:37;15.77;;;8.73;;
19016;SDS011;9641;51.494;6.670;2022-10-31T07:46:16;14.60;;;8.50;;
19016;SDS011;9641;51.494;6.670;2022-10-31T07:49:02;17.23;;;9.10;;
19016;SDS011;9641;51.494;6.670;2022-10-31T07:51:48;19.30;;;9.97;;
19016;SDS011;9641;51.494;6.670;2022-10-31T07:54:33;15.40;;;9.17;;
19016;SDS011;9641;51.494;6.670;2022-10-31T07:57:02;16.27;;;8.83;;
19016;SDS011;9641;51.494;6.670;2022-10-31T07:59:32;16.93;;;8.77;;
19016;SDS011;9641;51.494;6.670;2022-10-31T08:01:59;18.17;;;9.00;;
19016;SDS011;9641;51.494;6.670;2022-10-31T08:04:46;16.23;;;8.80;;
19016;SDS011;9641;51.494;6.670;2022-10-31T08:07:45;14.57;;;8.23;;
19016;SDS011;9641;51.494;6.670;2022-10-31T08:10:18;16.67;;;8.60;;
19016;SDS011;9641;51.494;6.670;2022-10-31T08:12:52;17.27;;;9.73;;
19016;SDS011;9641;51.494;6.670;2022-10-31T08:15:21;15.87;;;8.77;;
19016;SDS011;9641;51.494;6.670;2022-10-31T08:17:50;13.83;;;7.70;;
19016;SDS011;9641;51.494;6.670;2022-10-31T08:20:18;17.30;;;8.60;;
19016;SDS011;9641;51.494;6.670;2022-10-31T08:22:55;23.30;;;9.60;;
19016;SDS011;9641;51.494;6.670;2022-10-31T08:25:23;19.67;;;9.50;;
19016;SDS011;9641;51.494;6.670;2022-10-31T08:27:53;22.37;;;10.90;;
19016;SDS011;9641;51.494;6.670;2022-10-31T08:30:38;23.40;;;11.37;;
19016;SDS011;9641;51.494;6.670;2022-10-31T08:33:38;31.40;;;11.80;;
19016;SDS011;9641;51.494;6.670;2022-10-31T08:36:17;21.20;;;11.40;;
19016;SDS011;9641;51.494;6.670;2022-10-31T08:38:47;29.17;;;13.03;;
19016;SDS011;9641;51.494;6.670;2022-10-31T08:41:17;25.30;;;12.57;;
19016;SDS011;9641;51.494;6.670;2022-10-31T08:43:45;27.80;;;13.43;;
19016;SDS011;9641;51.494;6.670;2022-10-31T08:46:14;28.47;;;13.90;;
19016;SDS011;9641;51.494;6.670;2022-10-31T08:48:43;25.90;;;13.40;;
19016;SDS011;9641;51.494;6.670;2022-10-31T08:51:11;30.47;;;13.40;;
19016;SDS011;9641;51.494;6.670;2022-10-31T08:53:41;25.37;;;13.80;;
19016;SDS011;9641;51.494;6.670;2022-10-31T08:56:29;25.33;;;13.80;;
19016;SDS011;9641;51.494;6.670;2022-10-31T08:59:03;27.17;;;13.73;;
19016;SDS011;9641;51.494;6.670;2022-10-31T09:01:55;27.60;;;13.50;;
19016;SDS011;9641;51.494;6.670;2022-10-31T09:04:24;29.17;;;12.43;;
19016;SDS011;9641;51.494;6.670;2022-10-31T09:06:51;29.10;;;13.50;;
19016;SDS011;9641;51.494;6.670;2022-10-31T09:09:20;27.23;;;14.97;;
19016;SDS011;9641;51.494;6.670;2022-10-31T09:11:47;32.03;;;13.67;;
19016;SDS011;9641;51.494;6.670;2022-10-31T09:14:34;28.47;;;13.50;;
19016;SDS011;9641;51.494;6.670;2022-10-31T09:17:22;29.53;;;13.63;;
19016;SDS011;9641;51.494;6.670;2022-10-31T09:20:09;24.40;;;12.47;;
19016;SDS011;9641;51.494;6.670;2022-10-31T09:22:37;29.70;;;13.37;;
19016;SDS011;9641;51.494;6.670;2022-10-31T09:25:04;27.00;;;12.63;;
19016;SDS011;9641;51.494;6.670;2022-10-31T09:27:32;26.13;;;13.43;;
19016;SDS011;9641;51.494;6.670;2022-10-31T09:30:01;34.70;;;13.20;;
19016;SDS011;9641;51.494;6.670;2022-10-31T09:32:28;28.73;;;13.70;;
19016;SDS011;9641;51.494;6.670;2022-10-31T09:34:55;25.93;;;12.73;;
19016;SDS011;9641;51.494;6.670;2022-10-31T09:37:23;25.73;;;12.40;;
19016;SDS011;9641;51.494;6.670;2022-10-31T09:39:50;29.27;;;13.37;;
19016;SDS011;9641;51.494;6.670;2022-10-31T09:42:26;28.43;;;12.23;;
19016;SDS011;9641;51.494;6.670;2022-10-31T09:45:16;28.90;;;12.90;;
19016;SDS011;9641;51.494;6.670;2022-10-31T09:47:51;22.13;;;11.60;;
19016;SDS011;9641;51.494;6.670;2022-10-31T09:50:30;31.73;;;12.80;;
19016;SDS011;9641;51.494;6.670;2022-10-31T09:53:23;25.97;;;13.40;;
19016;SDS011;9641;51.494;6.670;2022-10-31T09:55:53;25.10;;;12.07;;
19016;SDS011;9641;51.494;6.670;2022-10-31T09:58:23;24.83;;;12.73;;
19016;SDS011;9641;51.494;6.670;2022-10-31T10:00:53;22.63;;;12.57;;
19016;SDS011;9641;51.494;6.670;2022-10-31T10:03:26;26.47;;;11.90;;
19016;SDS011;9641;51.494;6.670;2022-10-31T10:06:04;24.83;;;11.53;;
19016;SDS011;9641;51.494;6.670;2022-10-31T10:08:57;19.13;;;10.63;;
19016;SDS011;9641;51.494;6.670;2022-10-31T10:11:48;28.00;;;11.53;;
19016;SDS011;9641;51.494;6.670;2022-10-31T10:14:28;27.47;;;12.90;;
19016;SDS011;9641;51.494;6.670;2022-10-31T10:20:10;31.73;;;14.17;;
19016;SDS011;9641;51.494;6.670;2022-10-31T10:22:53;30.53;;;14.33;;
19016;SDS011;9641;51.494;6.670;2022-10-31T10:25:31;31.00;;;14.07;;
19016;SDS011;9641;51.494;6.670;2022-10-31T10:28:08;31.63;;;13.52;;
19016;SDS011;9641;51.494;6.670;2022-10-31T10:30:44;30.60;;;14.20;;
19016;SDS011;9641;51.494;6.670;2022-10-31T10:33:23;29.67;;;14.70;;
19016;SDS011;9641;51.494;6.670;2022-10-31T10:35:59;30.73;;;16.05;;
19016;SDS011;9641;51.494;6.670;2022-10-31T10:38:28;30.70;;;14.82;;
19016;SDS011;9641;51.494;6.670;2022-10-31T10:40:59;35.72;;;16.40;;
19016;SDS011;9641;51.494;6.670;2022-10-31T10:43:32;27.13;;;13.63;;
19016;SDS011;9641;51.494;6.670;2022-10-31T10:46:04;29.77;;;13.68;;
19016;SDS011;9641;51.494;6.670;2022-10-31T10:49:02;31.45;;;13.25;;
19016;SDS011;9641;51.494;6.670;2022-10-31T10:51:44;24.17;;;13.18;;
19016;SDS011;9641;51.494;6.670;2022-10-31T10:57:21;34.17;;;15.07;;
19016;SDS011;9641;51.494;6.670;2022-10-31T10:59:53;33.28;;;15.10;;
19016;SDS011;9641;51.494;6.670;2022-10-31T11:02:21;33.80;;;17.38;;
19016;SDS011;9641;51.494;6.670;2022-10-31T11:04:51;37.80;;;16.00;;
19016;SDS011;9641;51.494;6.670;2022-10-31T11:07:20;38.20;;;17.15;;
19016;SDS011;9641;51.494;6.670;2022-10-31T11:09:47;34.58;;;16.65;;
19016;SDS011;9641;51.494;6.670;2022-10-31T11:12:17;32.33;;;17.13;;
19016;SDS011;9641;51.494;6.670;2022-10-31T11:14:49;39.58;;;17.85;;
19016;SDS011;9641;51.494;6.670;2022-10-31T11:17:19;45.63;;;18.10;;
19016;SDS011;9641;51.494;6.670;2022-10-31T11:20:00;38.25;;;16.95;;
19016;SDS011;9641;51.494;6.670;2022-10-31T11:22:32;33.05;;;15.77;;
19016;SDS011;9641;51.494;6.670;2022-10-31T11:24:59;37.45;;;17.25;;
19016;SDS011;9641;51.494;6.670;2022-10-31T11:27:27;40.58;;;18.02;;
19016;SDS011;9641;51.494;6.670;2022-10-31T11:30:03;31.05;;;15.02;;
19016;SDS011;9641;51.494;6.670;2022-10-31T11:32:32;36.00;;;16.10;;
19016;SDS011;9641;51.494;6.670;2022-10-31T11:35:02;32.85;;;15.73;;
19016;SDS011;9641;51.494;6.670;2022-10-31T11:37:35;28.95;;;15.38;;
19016;SDS011;9641;51.494;6.670;2022-10-31T11:40:15;39.28;;;19.25;;
19016;SDS011;9641;51.494;6.670;2022-10-31T11:42:44;35.03;;;19.52;;
19016;SDS011;9641;51.494;6.670;2022-10-31T11:45:14;40.08;;;19.90;;
19016;SDS011;9641;51.494;6.670;2022-10-31T11:47:43;33.78;;;15.05;;
19016;SDS011;9641;51.494;6.670;2022-10-31T11:50:19;33.13;;;15.80;;
19016;SDS011;9641;51.494;6.670;2022-10-31T11:52:49;37.80;;;17.13;;
19016;SDS011;9641;51.494;6.670;2022-10-31T11:55:28;40.90;;;15.40;;
19016;SDS011;9641;51.494;6.670;2022-10-31T12:01:39;34.35;;;14.82;;
19016;SDS011;9641;51.494;6.670;2022-10-31T12:04:12;31.23;;;13.70;;
19016;SDS011;9641;51.494;6.670;2022-10-31T12:06:42;30.98;;;14.18;;
19016;SDS011;9641;51.494;6.670;2022-10-31T12:09:19;30.58;;;13.63;;
19016;SDS011;9641;51.494;6.670;2022-10-31T12:11:54;27.95;;;12.77;;
19016;SDS011;9641;51.494;6.670;2022-10-31T12:14:39;27.98;;;12.93;;
19016;SDS011;9641;51.494;6.670;2022-10-31T12:17:13;27.13;;;12.73;;
19016;SDS011;9641;51.494;6.670;2022-10-31T12:19:48;28.15;;;13.20;;
19016;SDS011;9641;51.494;6.670;2022-10-31T12:22:28;26.33;;;14.13;;
19016;SDS011;9641;51.494;6.670;2022-10-31T12:25:06;20.75;;;12.02;;
19016;SDS011;9641;51.494;6.670;2022-10-31T12:28:03;24.92;;;13.85;;
19016;SDS011;9641;51.494;6.670;2022-10-31T12:30:46;29.58;;;12.02;;
19016;SDS011;9641;51.494;6.670;2022-10-31T12:33:24;23.20;;;10.75;;
19016;SDS011;9641;51.494;6.670;2022-10-31T12:36:06;26.85;;;12.38;;
19016;SDS011;9641;51.494;6.670;2022-10-31T12:38:48;25.40;;;12.50;;
19016;SDS011;9641;51.494;6.670;2022-10-31T12:41:29;24.67;;;12.05;;
19016;SDS011;9641;51.494;6.670;2022-10-31T12:44:06;28.35;;;12.13;;
19016;SDS011;9641;51.494;6.670;2022-10-31T12:46:47;25.73;;;11.02;;
19016;SDS011;9641;51.494;6.670;2022-10-31T12:49:27;22.48;;;10.60;;
19016;SDS011;9641;51.494;6.670;2022-10-31T12:52:10;19.83;;;9.43;;
19016;SDS011;9641;51.494;6.670;2022-10-31T12:55:05;18.58;;;9.02;;
19016;SDS011;9641;51.494;6.670;2022-10-31T12:57:42;17.48;;;8.45;;
19016;SDS011;9641;51.494;6.670;2022-10-31T13:00:12;17.73;;;8.30;;
19016;SDS011;9641;51.494;6.670;2022-10-31T13:02:43;21.92;;;8.43;;
19016;SDS011;9641;51.494;6.670;2022-10-31T13:05:16;20.35;;;8.52;;
19016;SDS011;9641;51.494;6.670;2022-10-31T13:07:47;18.45;;;8.10;;
19016;SDS011;9641;51.494;6.670;2022-10-31T13:10:21;17.50;;;7.88;;
19016;SDS011;9641;51.494;6.670;2022-10-31T13:12:52;19.88;;;8.90;;
19016;SDS011;9641;51.494;6.670;2022-10-31T13:15:22;16.20;;;8.10;;
19016;SDS011;9641;51.494;6.670;2022-10-31T13:17:53;15.50;;;7.72;;
19016;SDS011;9641;51.494;6.670;2022-10-31T13:20:24;20.67;;;9.45;;
19016;SDS011;9641;51.494;6.670;2022-10-31T13:22:56;23.00;;;9.07;;
19016;SDS011;9641;51.494;6.670;2022-10-31T13:25:33;19.17;;;7.95;;
19016;SDS011;9641;51.494;6.670;2022-10-31T13:28:09;15.20;;;8.02;;
19016;SDS011;9641;51.494;6.670;2022-10-31T13:30:46;16.67;;;8.25;;
19016;SDS011;9641;51.494;6.670;2022-10-31T13:33:15;16.77;;;7.40;;
19016;SDS011;9641;51.494;6.670;2022-10-31T13:35:46;14.63;;;6.82;;
19016;SDS011;9641;51.494;6.670;2022-10-31T13:38:19;15.48;;;6.45;;
19016;SDS011;9641;51.494;6.670;2022-10-31T13:40:52;13.05;;;6.10;;
19016;SDS011;9641;51.494;6.670;2022-10-31T13:43:25;13.57;;;5.95;;
19016;SDS011;9641;51.494;6.670;2022-10-31T13:48:49;12.82;;;5.90;;
19016;SDS011;9641;51.494;6.670;2022-10-31T13:51:25;9.90;;;5.45;;
19016;SDS011;9641;51.494;6.670;2022-10-31T13:53:58;11.95;;;5.95;;
19016;SDS011;9641;51.494;6.670;2022-10-31T13:56:29;12.88;;;6.30;;
19016;SDS011;9641;51.494;6.670;2022-10-31T14:01:51;13.15;;;6.10;;
19016;SDS011;9641;51.494;6.670;2022-10-31T14:04:38;15.27;;;6.68;;
19016;SDS011;9641;51.494;6.670;2022-10-31T14:07:14;13.15;;;6.25;;
19016;SDS011;9641;51.494;6.670;2022-10-31T14:09:49;16.20;;;6.45;;
19016;SDS011;9641;51.494;6.670;2022-10-31T14:12:24;16.05;;;6.78;;
19016;SDS011;9641;51.494;6.670;2022-10-31T14:14:55;15.07;;;5.60;;
19016;SDS011;9641;51.494;6.670;2022-10-31T14:17:27;15.30;;;6.63;;
19016;SDS011;9641;51.494;6.670;2022-10-31T14:20:00;16.40;;;6.03;;
19016;SDS011;9641;51.494;6.670;2022-10-31T14:22:51;14.27;;;6.10;;
19016;SDS011;9641;51.494;6.670;2022-10-31T14:25:25;10.68;;;5.85;;
19016;SDS011;9641;51.494;6.670;2022-10-31T14:27:55;13.38;;;5.45;;
19016;SDS011;9641;51.494;6.670;2022-10-31T14:30:24;13.07;;;5.40;;
19016;SDS011;9641;51.494;6.670;2022-10-31T14:32:53;8.48;;;4.35;;
19016;SDS011;9641;51.494;6.670;2022-10-31T14:35:24;15.73;;;5.60;;
19016;SDS011;9641;51.494;6.670;2022-10-31T14:38:26;11.90;;;4.90;;
19016;SDS011;9641;51.494;6.670;2022-10-31T14:41:13;10.07;;;3.95;;
19016;SDS011;9641;51.494;6.670;2022-10-31T14:44:03;10.93;;;3.63;;
19016;SDS011;9641;51.494;6.670;2022-10-31T14:46:50;10.27;;;4.15;;
19016;SDS011;9641;51.494;6.670;2022-10-31T14:49:27;5.30;;;3.50;;
19016;SDS011;9641;51.494;6.670;2022-10-31T14:52:08;10.13;;;4.35;;
19016;SDS011;9641;51.494;6.670;2022-10-31T14:54:40;8.43;;;4.25;;
19016;SDS011;9641;51.494;6.670;2022-10-31T14:57:13;17.95;;;5.80;;
19016;SDS011;9641;51.494;6.670;2022-10-31T14:59:46;11.80;;;4.88;;
19016;SDS011;9641;51.494;6.670;2022-10-31T15:02:18;9.15;;;4.30;;
19016;SDS011;9641;51.494;6.670;2022-10-31T15:04:49;11.45;;;4.47;;
19016;SDS011;9641;51.494;6.670;2022-10-31T15:07:19;12.95;;;4.70;;
19016;SDS011;9641;51.494;6.670;2022-10-31T15:09:55;15.52;;;4.53;;
19016;SDS011;9641;51.494;6.670;2022-10-31T15:12:29;9.45;;;5.00;;
19016;SDS011;9641;51.494;6.670;2022-10-31T15:15:09;9.48;;;4.13;;
19016;SDS011;9641;51.494;6.670;2022-10-31T15:17:42;22.02;;;11.15;;
19016;SDS011;9641;51.494;6.670;2022-10-31T15:20:17;16.00;;;6.63;;
19016;SDS011;9641;51.494;6.670;2022-10-31T15:22:46;13.40;;;6.20;;
19016;SDS011;9641;51.494;6.670;2022-10-31T15:25:16;11.90;;;4.88;;
19016;SDS011;9641;51.494;6.670;2022-10-31T15:27:45;12.65;;;4.95;;
19016;SDS011;9641;51.494;6.670;2022-10-31T15:30:24;8.52;;;4.40;;
19016;SDS011;9641;51.494;6.670;2022-10-31T15:32:53;8.63;;;3.58;;
19016;SDS011;9641;51.494;6.670;2022-10-31T15:35:23;11.82;;;4.20;;
19016;SDS011;9641;51.494;6.670;2022-10-31T15:37:52;8.25;;;3.60;;